createdAt,value
2022-09-22T00:01:22.380Z,100.00
2022-09-22T00:03:52.967Z,100.00
2022-09-22T00:06:22.980Z,100.00
2022-09-22T00:08:52.535Z,100.00
2022-09-22T00:11:24.175Z,100.00
2022-09-22T00:13:54.497Z,100.00
2022-09-22T00:16:24.711Z,100.00
2022-09-22T00:18:52.867Z,100.00
2022-09-22T00:21:23.377Z,100.00
2022-09-22T00:23:51.541Z,100.00
2022-09-22T00:26:23.217Z,100.00
2022-09-22T00:28:53.259Z,100.00
2022-09-22T00:31:23.172Z,100.00
2022-09-22T00:33:51.937Z,100.00
2022-09-22T00:36:21.732Z,100.00
2022-09-22T00:38:51.512Z,100.00
2022-09-22T00:41:23.350Z,100.00
2022-09-22T00:44:41.239Z,100.00
2022-09-22T00:47:17.531Z,100.00
2022-09-22T00:49:49.751Z,100.00
2022-09-22T00:52:21.682Z,100.00
2022-09-22T00:54:50.202Z,100.00
2022-09-22T00:57:22.461Z,100.00
2022-09-22T00:59:51.891Z,100.00
2022-09-22T01:02:21.260Z,100.00
2022-09-22T01:04:51.814Z,100.00
2022-09-22T01:07:20.581Z,100.00
2022-09-22T01:09:48.841Z,100.00
2022-09-22T01:12:18.252Z,100.00
2022-09-22T01:15:00.118Z,100.00
2022-09-22T01:17:36.491Z,100.00
2022-09-22T01:20:42.666Z,100.00
2022-09-22T01:23:29.095Z,100.00
2022-09-22T01:26:17.351Z,100.00
2022-09-22T01:29:16.168Z,100.00
2022-09-22T01:31:53.161Z,100.00
2022-09-22T01:34:25.692Z,100.00
2022-09-22T01:36:57.731Z,100.00
2022-09-22T01:39:30.054Z,100.00
2022-09-22T01:42:01.880Z,100.00
2022-09-22T01:44:34.201Z,100.00
2022-09-22T01:47:07.422Z,100.00
2022-09-22T01:49:37.581Z,100.00
2022-09-22T01:52:11.341Z,100.00
2022-09-22T01:54:41.672Z,100.00
2022-09-22T01:57:15.324Z,100.00
2022-09-22T01:59:45.751Z,100.00
2022-09-22T02:02:19.132Z,100.00
2022-09-22T02:04:51.105Z,100.00
2022-09-22T02:07:24.623Z,100.00
2022-09-22T02:09:52.901Z,100.00
2022-09-22T02:12:21.119Z,100.00
2022-09-22T02:14:49.361Z,100.00
2022-09-22T02:17:19.383Z,100.00
2022-09-22T02:19:47.581Z,100.00
2022-09-22T02:22:15.919Z,100.00
2022-09-22T02:24:45.559Z,100.00
2022-09-22T02:27:15.102Z,100.00
2022-09-22T02:29:46.820Z,100.00
2022-09-22T02:32:18.601Z,100.00
2022-09-22T02:34:47.381Z,100.00
2022-09-22T02:37:22.685Z,100.00
2022-09-22T02:39:59.596Z,100.00
2022-09-22T02:42:30.159Z,100.00
2022-09-22T02:45:03.061Z,100.00
2022-09-22T02:47:37.043Z,100.00
2022-09-22T02:50:08.581Z,100.00
2022-09-22T02:52:37.865Z,100.00
2022-09-22T02:55:09.023Z,100.00
2022-09-22T02:57:37.485Z,100.00
2022-09-22T03:00:07.063Z,100.00
2022-09-22T03:02:36.571Z,100.00
2022-09-22T03:05:05.217Z,100.00
2022-09-22T03:07:33.764Z,100.00
2022-09-22T03:10:01.961Z,100.00
2022-09-22T03:12:30.151Z,100.00
2022-09-22T03:14:58.273Z,100.00
2022-09-22T03:17:26.373Z,100.00
2022-09-22T03:19:55.916Z,100.00
2022-09-22T03:22:23.991Z,100.00
2022-09-22T03:24:52.082Z,100.00
2022-09-22T03:27:20.201Z,100.00
2022-09-22T03:29:48.421Z,100.00
2022-09-22T03:32:16.527Z,100.00
2022-09-22T03:34:44.641Z,100.00
2022-09-22T03:37:14.116Z,100.00
2022-09-22T03:39:42.222Z,100.00
2022-09-22T03:42:10.700Z,100.00
2022-09-22T03:44:39.050Z,100.00
2022-09-22T03:47:07.121Z,100.00
2022-09-22T03:49:35.127Z,100.00
2022-09-22T03:52:03.462Z,100.00
2022-09-22T03:54:32.807Z,100.00
2022-09-22T03:57:00.787Z,100.00
2022-09-22T03:59:28.736Z,100.00
2022-09-22T04:01:58.372Z,100.00
2022-09-22T04:04:26.527Z,100.00
2022-09-22T04:06:54.517Z,100.00
2022-09-22T04:09:22.527Z,100.00
2022-09-22T04:11:52.140Z,100.00
2022-09-22T04:14:20.107Z,100.00
2022-09-22T04:16:48.085Z,100.00
2022-09-22T04:19:17.027Z,100.00
2022-09-22T04:21:45.387Z,100.00
2022-09-22T04:24:13.397Z,100.00
2022-09-22T04:26:56.405Z,100.00
2022-09-22T04:29:30.918Z,100.00
2022-09-22T04:31:58.907Z,100.00
2022-09-22T04:34:26.908Z,100.00
2022-09-22T04:36:54.911Z,100.00
2022-09-22T04:39:24.028Z,100.00
2022-09-22T04:41:52.444Z,100.00
2022-09-22T04:44:20.404Z,100.00
2022-09-22T04:46:50.589Z,100.00
2022-09-22T04:49:18.928Z,100.00
2022-09-22T04:51:46.917Z,100.00
2022-09-22T04:54:15.087Z,100.00
2022-09-22T04:56:43.135Z,100.00
2022-09-22T04:59:12.003Z,100.00
2022-09-22T05:01:40.214Z,100.00
2022-09-22T05:04:09.616Z,100.00
2022-09-22T05:06:37.627Z,100.00
2022-09-22T05:09:05.921Z,100.00
2022-09-22T05:11:34.409Z,100.00
2022-09-22T05:14:02.788Z,100.00
2022-09-22T05:16:32.422Z,100.00
2022-09-22T05:19:00.548Z,100.00
2022-09-22T05:21:30.138Z,100.00
2022-09-22T05:23:58.364Z,100.00
2022-09-22T05:26:27.207Z,100.00
2022-09-22T05:28:55.418Z,100.00
2022-09-22T05:31:23.435Z,100.00
2022-09-22T05:33:51.490Z,100.00
2022-09-22T05:36:19.397Z,100.00
2022-09-22T05:38:48.727Z,100.00
2022-09-22T05:41:16.677Z,100.00
2022-09-22T05:43:44.647Z,100.00
2022-09-22T05:46:12.612Z,100.00
2022-09-22T05:48:40.658Z,100.00
2022-09-22T05:51:08.567Z,100.00
2022-09-22T05:53:36.538Z,100.00
2022-09-22T05:56:06.190Z,100.00
2022-09-22T05:58:34.767Z,100.00
2022-09-22T06:01:04.525Z,100.00
2022-09-22T06:03:32.580Z,100.00
2022-09-22T06:06:00.508Z,100.00
2022-09-22T06:08:28.487Z,100.00
2022-09-22T06:10:56.407Z,100.00
2022-09-22T06:13:26.383Z,100.00
2022-09-22T06:15:54.323Z,100.00
2022-09-22T06:18:24.798Z,100.00
2022-09-22T06:20:53.137Z,100.00
2022-09-22T06:23:21.139Z,100.00
2022-09-22T06:25:49.077Z,100.00
2022-09-22T06:28:17.217Z,100.00
2022-09-22T06:30:48.560Z,100.00
2022-09-22T06:33:16.527Z,100.00
2022-09-22T06:35:45.475Z,100.00
2022-09-22T06:38:15.487Z,100.00
2022-09-22T06:40:44.002Z,100.00
2022-09-22T06:43:22.713Z,100.00
2022-09-22T06:45:53.197Z,100.00
2022-09-22T06:48:23.895Z,100.00
2022-09-22T06:50:53.647Z,100.00
2022-09-22T06:53:25.777Z,100.00
2022-09-22T06:55:54.961Z,100.00
2022-09-22T06:58:23.420Z,100.00
2022-09-22T07:00:53.892Z,100.00
2022-09-22T07:03:24.501Z,100.00
2022-09-22T07:05:56.581Z,100.00
2022-09-22T07:08:25.570Z,100.00
2022-09-22T07:10:54.907Z,100.00
2022-09-22T07:13:23.027Z,100.00
2022-09-22T07:15:52.578Z,100.00
2022-09-22T07:18:20.608Z,100.00
2022-09-22T07:20:48.526Z,100.00
2022-09-22T07:23:19.197Z,100.00
2022-09-22T07:25:57.209Z,100.00
2022-09-22T07:28:26.056Z,100.00
2022-09-22T07:30:57.449Z,100.00
2022-09-22T07:33:25.406Z,100.00
2022-09-22T07:36:02.058Z,100.00
2022-09-22T07:38:34.060Z,100.00
2022-09-22T07:41:02.329Z,100.00
2022-09-22T07:43:30.329Z,100.00
2022-09-22T07:45:59.667Z,100.00
2022-09-22T07:48:42.687Z,100.00
2022-09-22T07:51:16.520Z,100.00
2022-09-22T07:53:46.251Z,100.00
2022-09-22T07:56:15.539Z,100.00
2022-09-22T07:58:47.007Z,100.00
2022-09-22T08:01:16.407Z,100.00
2022-09-22T08:03:46.487Z,100.00
2022-09-22T08:06:16.238Z,100.00
2022-09-22T08:08:46.359Z,100.00
2022-09-22T08:11:15.735Z,100.00
2022-09-22T08:13:46.337Z,100.00
2022-09-22T08:16:14.507Z,100.00
2022-09-22T08:18:43.890Z,100.00
2022-09-22T08:21:13.415Z,100.00
2022-09-22T08:23:41.877Z,100.00
2022-09-22T08:26:10.376Z,100.00
2022-09-22T08:28:39.144Z,100.00
2022-09-22T08:31:13.014Z,100.00
2022-09-22T08:33:41.340Z,100.00
2022-09-22T08:36:10.757Z,100.00
2022-09-22T08:38:39.067Z,100.00
2022-09-22T08:41:17.658Z,100.00
2022-09-22T08:43:55.551Z,100.00
2022-09-22T08:46:29.027Z,100.00
2022-09-22T08:49:17.915Z,100.00
2022-09-22T08:51:53.906Z,100.00
2022-09-22T08:54:23.368Z,100.00
2022-09-22T08:57:03.498Z,100.00
2022-09-22T08:59:34.237Z,100.00
2022-09-22T09:02:18.967Z,100.00
2022-09-22T09:05:09.007Z,100.00
2022-09-22T09:07:45.907Z,100.00
2022-09-22T09:10:26.925Z,100.00
2022-09-22T09:13:04.125Z,100.00
2022-09-22T09:15:44.255Z,100.00
2022-09-22T09:18:15.406Z,100.00
2022-09-22T09:20:46.683Z,100.00
2022-09-22T09:23:23.221Z,100.00
2022-09-22T09:25:54.487Z,100.00
2022-09-22T09:28:27.690Z,100.00
2022-09-22T09:31:02.501Z,100.00
2022-09-22T09:33:35.247Z,100.00
2022-09-22T09:36:03.648Z,100.00
2022-09-22T09:38:35.607Z,100.00
2022-09-22T09:41:15.058Z,100.00
2022-09-22T09:43:45.812Z,100.00
2022-09-22T09:46:18.582Z,100.00
2022-09-22T09:49:00.338Z,100.00
2022-09-22T09:51:29.797Z,100.00
2022-09-22T09:54:05.599Z,99.63
2022-09-22T09:56:37.109Z,99.86
2022-09-22T09:59:24.153Z,97.28
2022-09-22T10:01:54.130Z,93.24
2022-09-22T10:04:31.447Z,94.22
2022-09-22T10:07:12.975Z,90.13
2022-09-22T10:09:42.590Z,87.59
2022-09-22T10:12:23.643Z,84.91
2022-09-22T10:14:52.777Z,86.16
2022-09-22T10:17:22.244Z,83.90
2022-09-22T10:19:51.200Z,85.28
2022-09-22T10:22:25.867Z,80.83
2022-09-22T10:24:57.938Z,79.05
2022-09-22T10:27:27.219Z,77.04
2022-09-22T10:30:23.747Z,77.19
2022-09-22T10:33:21.857Z,77.67
2022-09-22T10:35:56.191Z,78.85
2022-09-22T10:38:27.182Z,76.44
2022-09-22T10:40:58.606Z,71.57
2022-09-22T10:43:41.717Z,72.45
2022-09-22T10:46:30.307Z,71.40
2022-09-22T10:49:07.532Z,69.43
2022-09-22T10:51:44.141Z,70.39
2022-09-22T10:54:23.577Z,70.63
2022-09-22T10:56:54.737Z,71.17
2022-09-22T10:59:51.528Z,72.54
2022-09-22T11:02:57.358Z,71.17
2022-09-22T11:05:51.475Z,71.14
2022-09-22T11:08:38.335Z,69.27
2022-09-22T11:11:33.635Z,65.81
2022-09-22T11:14:13.987Z,63.68
2022-09-22T11:16:49.977Z,61.94
2022-09-22T11:19:58.912Z,60.28
2022-09-22T11:22:48.954Z,60.06
2022-09-22T11:25:27.210Z,58.91
2022-09-22T11:28:05.647Z,56.08
2022-09-22T11:30:36.980Z,55.34
2022-09-22T11:33:26.157Z,57.96
2022-09-22T11:36:11.095Z,55.87
2022-09-22T11:39:02.828Z,55.11
2022-09-22T11:41:32.797Z,57.52
2022-09-22T11:44:36.473Z,56.93
2022-09-22T11:47:28.449Z,54.81
2022-09-22T11:50:14.252Z,56.56
2022-09-22T11:52:58.411Z,55.27
2022-09-22T11:55:33.192Z,56.67
2022-09-22T11:58:04.796Z,56.19
2022-09-22T12:00:37.047Z,57.69
2022-09-22T12:03:11.350Z,57.41
2022-09-22T12:05:41.736Z,57.59
2022-09-22T12:08:13.268Z,57.20
2022-09-22T12:10:44.726Z,57.05
2022-09-22T12:13:15.497Z,57.25
2022-09-22T12:15:46.862Z,59.25
2022-09-22T12:18:18.266Z,59.49
2022-09-22T12:20:54.886Z,58.40
2022-09-22T12:23:39.310Z,55.08
2022-09-22T12:26:09.400Z,54.94
2022-09-22T12:28:42.527Z,54.51
2022-09-22T12:31:13.228Z,54.23
2022-09-22T12:33:50.496Z,53.58
2022-09-22T12:36:20.196Z,54.20
2022-09-22T12:38:48.182Z,55.23
2022-09-22T12:41:20.307Z,56.38
2022-09-22T12:43:48.928Z,54.48
2022-09-22T12:46:25.267Z,51.56
2022-09-22T12:48:55.117Z,44.90
2022-09-22T12:51:36.116Z,38.81
2022-09-22T12:54:39.147Z,36.92
2022-09-22T12:57:33.037Z,34.19
2022-09-22T13:00:20.806Z,32.89
2022-09-22T13:02:49.986Z,30.04
2022-09-22T13:05:46.375Z,27.97
2022-09-22T13:08:21.257Z,26.61
2022-09-22T13:11:00.200Z,27.66
2022-09-22T13:13:39.986Z,26.06
2022-09-22T13:16:34.649Z,25.95
2022-09-22T13:19:03.306Z,25.79
2022-09-22T13:21:33.517Z,27.02
2022-09-22T13:24:03.914Z,26.45
2022-09-22T13:26:33.566Z,26.39
2022-09-22T13:29:03.747Z,27.12
2022-09-22T13:31:38.247Z,26.42
2022-09-22T13:34:22.922Z,30.16
2022-09-22T13:36:53.837Z,34.15
2022-09-22T13:39:23.928Z,36.61
2022-09-22T13:41:54.690Z,38.71
2022-09-22T13:44:26.226Z,40.80
2022-09-22T13:46:54.407Z,42.33
2022-09-22T13:49:29.197Z,41.66
2022-09-22T13:52:00.977Z,41.06
2022-09-22T13:54:31.837Z,41.95
2022-09-22T13:57:00.137Z,41.53
2022-09-22T13:59:32.127Z,36.11
2022-09-22T14:02:07.433Z,31.86
2022-09-22T14:04:35.975Z,28.67
2022-09-22T14:07:10.038Z,27.46
2022-09-22T14:09:39.859Z,25.04
2022-09-22T14:12:10.414Z,25.58
2022-09-22T14:14:39.878Z,24.47
2022-09-22T14:17:09.648Z,23.97
2022-09-22T14:19:39.909Z,23.76
2022-09-22T14:22:16.797Z,22.95
2022-09-22T14:24:48.750Z,21.73
2022-09-22T14:27:21.577Z,23.34
2022-09-22T14:29:51.297Z,22.87
2022-09-22T14:32:25.497Z,21.69
2022-09-22T14:34:58.519Z,22.50
2022-09-22T14:37:31.878Z,22.94
2022-09-22T14:40:02.015Z,23.60
2022-09-22T14:42:31.447Z,28.18
2022-09-22T14:45:21.202Z,33.19
2022-09-22T14:48:19.322Z,35.83
2022-09-22T14:50:49.500Z,37.94
2022-09-22T14:53:22.302Z,39.51
2022-09-22T14:55:52.661Z,42.32
2022-09-22T14:58:24.000Z,42.37
2022-09-22T15:01:11.846Z,44.74
2022-09-22T15:03:40.749Z,44.40
2022-09-22T15:06:09.999Z,46.63
2022-09-22T15:08:39.508Z,45.85
2022-09-22T15:11:07.719Z,45.51
2022-09-22T15:13:40.791Z,47.89
2022-09-22T15:16:38.800Z,48.84
2022-09-22T15:19:07.934Z,47.96
2022-09-22T15:21:40.814Z,48.29
2022-09-22T15:24:12.312Z,48.88
2022-09-22T15:26:42.027Z,48.95
2022-09-22T15:29:12.316Z,50.05
2022-09-22T15:31:40.590Z,51.08
2022-09-22T15:34:10.068Z,49.04
2022-09-22T15:36:46.019Z,50.44
2022-09-22T15:39:21.568Z,48.11
2022-09-22T15:41:49.989Z,48.37
2022-09-22T15:44:18.337Z,48.81
2022-09-22T15:46:50.688Z,48.70
2022-09-22T15:49:24.729Z,49.37
2022-09-22T15:51:53.118Z,49.77
2022-09-22T15:54:23.741Z,49.94
2022-09-22T15:56:54.042Z,53.50
2022-09-22T15:59:26.971Z,54.66
2022-09-22T16:01:57.467Z,53.01
2022-09-22T16:04:27.631Z,54.48
2022-09-22T16:06:58.809Z,55.63
2022-09-22T16:09:28.781Z,54.84
2022-09-22T16:11:56.885Z,56.61
2022-09-22T16:14:24.975Z,55.23
2022-09-22T16:16:53.098Z,54.67
2022-09-22T16:19:21.458Z,56.89
2022-09-22T16:21:51.367Z,58.80
2022-09-22T16:24:19.606Z,58.45
2022-09-22T16:26:49.206Z,57.76
2022-09-22T16:29:17.247Z,58.76
2022-09-22T16:31:45.298Z,61.14
2022-09-22T16:34:13.475Z,61.38
2022-09-22T16:36:41.930Z,61.92
2022-09-22T16:39:10.280Z,59.95
2022-09-22T16:41:38.577Z,60.16
2022-09-22T16:44:08.047Z,62.74
2022-09-22T16:46:38.012Z,65.52
2022-09-22T16:49:08.430Z,62.79
2022-09-22T16:51:39.538Z,61.54
2022-09-22T16:54:09.048Z,62.03
2022-09-22T16:56:39.112Z,63.19
2022-09-22T16:59:09.077Z,62.20
2022-09-22T17:01:38.453Z,63.98
2022-09-22T17:04:07.823Z,64.98
2022-09-22T17:06:37.837Z,65.87
2022-09-22T17:09:07.109Z,66.40
2022-09-22T17:11:37.546Z,67.04
2022-09-22T17:14:12.166Z,69.35
2022-09-22T17:16:43.094Z,71.25
2022-09-22T17:19:12.869Z,72.24
2022-09-22T17:21:41.346Z,73.38
2022-09-22T17:24:09.947Z,76.06
2022-09-22T17:26:40.836Z,80.42
2022-09-22T17:29:11.010Z,84.55
2022-09-22T17:31:40.115Z,87.46
2022-09-22T17:34:09.942Z,90.05
2022-09-22T17:36:38.025Z,92.40
2022-09-22T17:39:06.895Z,94.24
2022-09-22T17:41:35.416Z,98.99
2022-09-22T17:44:04.670Z,100.00
2022-09-22T17:46:34.662Z,100.00
2022-09-22T17:49:20.435Z,100.00
2022-09-22T17:52:08.015Z,100.00
2022-09-22T17:54:55.193Z,100.00
2022-09-22T17:57:24.701Z,100.00
2022-09-22T17:59:54.441Z,100.00
2022-09-22T18:02:22.560Z,100.00
2022-09-22T18:04:50.759Z,100.00
2022-09-22T18:07:21.308Z,100.00
2022-09-22T18:09:50.827Z,100.00
2022-09-22T18:12:21.759Z,100.00
2022-09-22T18:14:52.276Z,100.00
2022-09-22T18:17:21.805Z,100.00
2022-09-22T18:19:49.903Z,100.00
2022-09-22T18:22:21.309Z,100.00
2022-09-22T18:24:50.721Z,100.00
2022-09-22T18:27:19.648Z,100.00
2022-09-22T18:29:50.142Z,100.00
2022-09-22T18:32:19.812Z,100.00
2022-09-22T18:34:51.339Z,100.00
2022-09-22T18:37:21.037Z,100.00
2022-09-22T18:39:50.885Z,100.00
2022-09-22T18:42:19.335Z,100.00
2022-09-22T18:44:48.399Z,100.00
2022-09-22T18:47:18.664Z,100.00
2022-09-22T18:49:48.376Z,100.00
2022-09-22T18:52:18.327Z,100.00
2022-09-22T18:54:47.947Z,100.00
2022-09-22T18:57:16.029Z,100.00
2022-09-22T18:59:44.460Z,100.00
2022-09-22T19:02:13.118Z,100.00
2022-09-22T19:04:41.679Z,100.00
2022-09-22T19:07:27.647Z,100.00
2022-09-22T19:09:57.173Z,100.00
2022-09-22T19:12:25.313Z,100.00
2022-09-22T19:14:54.672Z,100.00
2022-09-22T19:17:24.539Z,100.00
2022-09-22T19:19:52.869Z,100.00
2022-09-22T19:22:23.383Z,100.00
2022-09-22T19:24:52.691Z,100.00
2022-09-22T19:27:22.862Z,100.00
2022-09-22T19:29:52.056Z,100.00
2022-09-22T19:32:20.099Z,100.00
2022-09-22T19:34:51.713Z,100.00
2022-09-22T19:37:19.797Z,100.00
2022-09-22T19:39:50.030Z,100.00
2022-09-22T19:42:19.090Z,100.00
2022-09-22T19:44:48.651Z,100.00
2022-09-22T19:47:17.166Z,100.00
2022-09-22T19:49:45.268Z,100.00
2022-09-22T19:52:13.538Z,100.00
2022-09-22T19:54:41.597Z,100.00
2022-09-22T19:57:09.667Z,100.00
2022-09-22T19:59:37.799Z,100.00
2022-09-22T20:02:12.787Z,100.00
2022-09-22T20:04:40.919Z,100.00
2022-09-22T20:07:11.010Z,100.00
2022-09-22T20:09:39.198Z,100.00
2022-09-22T20:12:07.758Z,100.00
2022-09-22T20:14:35.883Z,100.00
2022-09-22T20:17:07.237Z,100.00
2022-09-22T20:19:38.499Z,100.00
2022-09-22T20:22:25.563Z,100.00
2022-09-22T20:24:55.829Z,100.00
2022-09-22T20:27:25.980Z,100.00
2022-09-22T20:29:57.262Z,100.00
2022-09-22T20:32:28.762Z,100.00
2022-09-22T20:34:57.813Z,100.00
2022-09-22T20:37:26.143Z,100.00
2022-09-22T20:39:54.566Z,100.00
2022-09-22T20:42:23.897Z,100.00
2022-09-22T20:44:52.113Z,100.00
2022-09-22T20:47:22.040Z,100.00
2022-09-22T20:49:52.074Z,100.00
2022-09-22T20:52:21.127Z,100.00
2022-09-22T20:54:49.602Z,100.00
2022-09-22T20:57:17.680Z,100.00
2022-09-22T20:59:46.189Z,100.00
2022-09-22T21:02:15.028Z,100.00
2022-09-22T21:04:43.737Z,100.00
2022-09-22T21:07:13.159Z,100.00
2022-09-22T21:09:59.009Z,100.00
2022-09-22T21:12:30.926Z,100.00
2022-09-22T21:14:59.549Z,100.00
2022-09-22T21:17:29.913Z,100.00
2022-09-22T21:19:58.401Z,100.00
2022-09-22T21:22:28.413Z,100.00
2022-09-22T21:24:56.613Z,100.00
2022-09-22T21:27:25.232Z,100.00
2022-09-22T21:29:53.352Z,100.00
2022-09-22T21:32:21.419Z,100.00
2022-09-22T21:34:49.532Z,100.00
2022-09-22T21:37:17.531Z,100.00
2022-09-22T21:39:47.019Z,100.00
2022-09-22T21:42:15.059Z,100.00
2022-09-22T21:44:43.341Z,100.00
2022-09-22T21:47:11.762Z,100.00
2022-09-22T21:49:39.926Z,100.00
2022-09-22T21:52:07.988Z,100.00
2022-09-22T21:54:36.090Z,100.00
2022-09-22T21:57:05.696Z,100.00
2022-09-22T21:59:33.818Z,100.00
2022-09-22T22:02:01.897Z,100.00
2022-09-22T22:04:30.150Z,100.00
2022-09-22T22:06:58.281Z,100.00
2022-09-22T22:09:26.601Z,100.00
2022-09-22T22:11:56.648Z,100.00
2022-09-22T22:14:28.286Z,100.00
2022-09-22T22:16:56.606Z,100.00
2022-09-22T22:19:27.204Z,100.00
2022-09-22T22:21:55.787Z,100.00
2022-09-22T22:24:29.204Z,100.00
2022-09-22T22:27:01.453Z,100.00
2022-09-22T22:29:32.117Z,100.00
2022-09-22T22:32:00.526Z,100.00
2022-09-22T22:34:28.811Z,100.00
2022-09-22T22:36:58.626Z,100.00
2022-09-22T22:39:26.839Z,100.00
2022-09-22T22:41:55.748Z,100.00
2022-09-22T22:44:24.807Z,100.00
2022-09-22T22:46:54.230Z,100.00
2022-09-22T22:49:22.308Z,100.00
2022-09-22T22:51:52.508Z,100.00
2022-09-22T22:54:20.588Z,100.00
2022-09-22T22:56:51.234Z,100.00
2022-09-22T22:59:20.326Z,100.00
2022-09-22T23:01:48.498Z,100.00
2022-09-22T23:04:17.960Z,100.00
2022-09-22T23:06:47.538Z,100.00
2022-09-22T23:09:17.271Z,100.00
2022-09-22T23:11:46.758Z,100.00
2022-09-22T23:14:16.254Z,100.00
2022-09-22T23:16:46.386Z,100.00
2022-09-22T23:19:18.590Z,100.00
2022-09-22T23:21:47.411Z,100.00
2022-09-22T23:24:16.846Z,100.00
2022-09-22T23:26:45.354Z,100.00
2022-09-22T23:29:13.658Z,100.00
2022-09-22T23:31:41.767Z,100.00
2022-09-22T23:34:09.846Z,100.00
2022-09-22T23:36:39.746Z,100.00
2022-09-22T23:39:08.051Z,100.00
2022-09-22T23:41:37.979Z,100.00
2022-09-22T23:44:06.949Z,100.00
2022-09-22T23:46:35.609Z,100.00
2022-09-22T23:49:03.711Z,100.00
2022-09-22T23:51:31.818Z,100.00
2022-09-22T23:54:01.285Z,100.00
2022-09-22T23:56:29.538Z,100.00
2022-09-22T23:58:58.030Z,100.00
